Time;durP1;ratioP1;P1;durP2;ratioP2;P2;SDS_P1;SDS_P2;PMS_P1;PMS_P2;Temp;Humidity;BMP_temperature;BMP_pressure;BME280_temperature;BME280_humidity;BME280_pressure;Samples;Min_cycle;Max_cycle;Signal;HPM_P1;HPM_P2
2021/09/14 00:00:52;;;;;;;6.10;2.50;;;;;;;;;;4970720;28;20471;-83
2021/09/14 00:03:20;;;;;;;4.25;2.30;;;;;;;;;;4971354;28;20540;-83
2021/09/14 00:05:48;;;;;;;9.45;3.20;;;;;;;;;;4971951;28;20047;-82
2021/09/14 00:08:16;;;;;;;8.05;2.70;;;;;;;;;;4976377;28;20769;-83
2021/09/14 00:10:43;;;;;;;9.38;3.88;;;;;;;;;;4986304;28;20051;-83
2021/09/14 00:13:11;;;;;;;10.65;3.78;;;;;;;;;;4994918;28;20039;-83
2021/09/14 00:15:38;;;;;;;7.47;4.38;;;;;;;;;;4970907;28;20042;-83
2021/09/14 00:18:05;;;;;;;9.80;3.80;;;;;;;;;;4971341;28;20054;-84
2021/09/14 00:20:33;;;;;;;12.20;4.38;;;;;;;;;;4965538;28;20089;-84
2021/09/14 00:23:02;;;;;;;10.38;4.05;;;;;;;;;;4970791;28;20101;-83
2021/09/14 00:25:30;;;;;;;13.85;5.15;;;;;;;;;;4971845;28;20122;-83
2021/09/14 00:27:57;;;;;;;12.13;4.22;;;;;;;;;;4970595;28;20054;-83
2021/09/14 00:30:24;;;;;;;11.45;5.05;;;;;;;;;;4971548;28;20082;-83
2021/09/14 00:32:52;;;;;;;8.52;4.78;;;;;;;;;;4964412;28;20082;-83
2021/09/14 00:35:19;;;;;;;13.70;4.82;;;;;;;;;;4971312;28;20130;-84
2021/09/14 00:37:46;;;;;;;15.02;4.65;;;;;;;;;;4956594;28;20167;-84
2021/09/14 00:40:14;;;;;;;20.85;5.35;;;;;;;;;;4956299;29;20489;-83
2021/09/14 00:42:41;;;;;;;12.20;4.25;;;;;;;;;;4969655;28;20050;-83
2021/09/14 00:45:08;;;;;;;8.07;3.60;;;;;;;;;;4975633;28;20089;-83
2021/09/14 00:47:35;;;;;;;12.02;3.63;;;;;;;;;;4961042;28;20087;-83
2021/09/14 00:50:05;;;;;;;8.40;4.05;;;;;;;;;;4971569;28;20129;-83
2021/09/14 00:52:33;;;;;;;8.70;3.72;;;;;;;;;;4973332;28;20142;-84
2021/09/14 00:55:03;;;;;;;12.25;4.95;;;;;;;;;;4975377;28;20043;-84
2021/09/14 00:57:30;;;;;;;9.88;4.45;;;;;;;;;;4971174;28;20472;-83
2021/09/14 00:59:58;;;;;;;16.33;4.68;;;;;;;;;;5000644;28;20439;-83
2021/09/14 01:02:25;;;;;;;8.27;4.38;;;;;;;;;;4970960;28;20138;-83
2021/09/14 01:04:52;;;;;;;7.45;3.95;;;;;;;;;;4973560;28;20043;-83
2021/09/14 01:07:20;;;;;;;10.80;3.47;;;;;;;;;;4973624;28;20082;-83
2021/09/14 01:09:47;;;;;;;8.82;4.30;;;;;;;;;;4962398;28;20135;-84
2021/09/14 01:12:15;;;;;;;6.13;3.05;;;;;;;;;;4979559;28;20132;-83
2021/09/14 01:14:50;;;;;;;5.57;2.40;;;;;;;;;;4989683;28;20532;-83
2021/09/14 01:17:18;;;;;;;9.18;2.47;;;;;;;;;;4961435;28;20079;-83
2021/09/14 01:19:45;;;;;;;9.50;2.83;;;;;;;;;;4968235;28;20989;-83
2021/09/14 01:22:42;;;;;;;6.90;3.17;;;;;;;;;;4973597;28;20133;-83
2021/09/14 01:25:18;;;;;;;4.88;2.70;;;;;;;;;;4970603;28;20085;-83
2021/09/14 01:27:45;;;;;;;;;;;;;;;;;;4970311;28;20555;-83
2021/09/14 01:30:13;;;;;;;8.98;2.90;;;;;;;;;;4973518;28;19925;-82
2021/09/14 01:32:45;;;;;;;6.18;2.45;;;;;;;;;;4970149;28;20456;-82
2021/09/14 01:35:19;;;;;;;3.65;2.33;;;;;;;;;;4973398;28;20448;-83
2021/09/14 01:37:47;;;;;;;4.43;2.13;;;;;;;;;;4972377;28;20070;-82
2021/09/14 01:40:14;;;;;;;5.03;2.17;;;;;;;;;;4972702;28;20083;-82
2021/09/14 01:42:41;;;;;;;6.13;2.45;;;;;;;;;;4971505;28;20093;-83
2021/09/14 01:45:09;;;;;;;5.88;2.20;;;;;;;;;;4970007;28;20058;-82
2021/09/14 01:47:37;;;;;;;6.78;3.10;;;;;;;;;;4966408;28;20063;-83
2021/09/14 01:50:05;;;;;;;10.98;4.10;;;;;;;;;;5002137;28;20133;-83
2021/09/14 01:52:33;;;;;;;11.70;3.72;;;;;;;;;;4979958;28;20094;-83
2021/09/14 01:55:10;;;;;;;5.75;3.15;;;;;;;;;;4972461;28;20123;-83
2021/09/14 01:57:39;;;;;;;8.10;2.67;;;;;;;;;;4972286;28;20578;-83
2021/09/14 02:00:10;;;;;;;7.97;3.50;;;;;;;;;;4971573;28;20086;-83
2021/09/14 02:03:08;;;;;;;6.80;3.80;;;;;;;;;;4995503;28;20574;-82
2021/09/14 02:08:43;;;;;;;17.50;3.95;;;;;;;;;;4991461;28;20088;-82
2021/09/14 02:38:38;;;;;;;13.65;3.83;;;;;;;;;;4980594;28;20587;-82
2021/09/14 02:41:50;;;;;;;6.55;3.83;;;;;;;;;;4972963;28;20065;-83
2021/09/14 03:00:16;;;;;;;9.02;4.65;;;;;;;;;;4981121;28;20081;-83
2021/09/14 03:02:45;;;;;;;8.02;3.63;;;;;;;;;;4975477;28;20440;-83
2021/09/14 03:05:14;;;;;;;8.10;3.63;;;;;;;;;;4970453;28;20050;-83
2021/09/14 03:07:41;;;;;;;10.05;3.58;;;;;;;;;;4985411;28;20050;-83
2021/09/14 03:10:09;;;;;;;12.52;4.70;;;;;;;;;;4978335;28;20070;-83
2021/09/14 03:12:36;;;;;;;7.95;3.75;;;;;;;;;;4977494;28;20082;-83
2021/09/14 03:15:05;;;;;;;9.82;3.10;;;;;;;;;;4973241;28;20836;-83
2021/09/14 03:17:32;;;;;;;9.30;3.50;;;;;;;;;;4980297;28;20462;-83
2021/09/14 03:19:59;;;;;;;11.60;3.63;;;;;;;;;;4972960;28;20149;-83
2021/09/14 03:22:26;;;;;;;6.93;3.40;;;;;;;;;;4976602;28;20189;-83
2021/09/14 03:24:55;;;;;;;10.50;4.25;;;;;;;;;;4981724;28;20100;-82
2021/09/14 03:27:22;;;;;;;7.75;3.78;;;;;;;;;;4974978;28;20047;-83
2021/09/14 03:29:51;;;;;;;10.35;4.20;;;;;;;;;;4968657;28;20139;-84
2021/09/14 03:32:18;;;;;;;16.88;3.75;;;;;;;;;;4975658;28;20201;-83
2021/09/14 03:34:45;;;;;;;13.85;4.53;;;;;;;;;;4982152;28;20142;-83
2021/09/14 03:37:12;;;;;;;14.38;3.65;;;;;;;;;;4970390;28;20747;-83
2021/09/14 03:39:53;;;;;;;11.35;3.90;;;;;;;;;;4970427;28;20086;-83
2021/09/14 03:42:20;;;;;;;12.90;4.10;;;;;;;;;;4970545;28;20850;-83
2021/09/14 03:44:48;;;;;;;9.85;4.35;;;;;;;;;;4971418;28;20074;-83
2021/09/14 03:47:15;;;;;;;11.00;4.88;;;;;;;;;;4955089;28;20066;-83
2021/09/14 03:49:42;;;;;;;17.23;4.80;;;;;;;;;;4963882;28;20135;-83
2021/09/14 03:52:09;;;;;;;11.43;5.32;;;;;;;;;;4970384;28;20046;-83
2021/09/14 03:54:36;;;;;;;23.65;5.50;;;;;;;;;;4971213;28;20157;-84
2021/09/14 03:57:04;;;;;;;14.00;5.30;;;;;;;;;;4967578;28;20054;-83
2021/09/14 03:59:34;;;;;;;13.10;4.85;;;;;;;;;;4963188;28;20412;-84
2021/09/14 04:02:02;;;;;;;15.30;4.85;;;;;;;;;;4967390;28;20732;-83
2021/09/14 04:10:17;;;;;;;;;;;;;;;;;;4964095;28;20154;-83
2021/09/14 04:12:44;;;;;;;12.70;4.90;;;;;;;;;;4975116;28;20009;-83
2021/09/14 04:15:12;;;;;;;8.70;4.78;;;;;;;;;;4974827;28;20050;-83
2021/09/14 04:17:39;;;;;;;9.00;4.10;;;;;;;;;;4974125;28;20690;-82
2021/09/14 04:20:06;;;;;;;13.63;5.57;;;;;;;;;;4973965;28;20157;-83
2021/09/14 04:22:33;;;;;;;15.75;4.85;;;;;;;;;;4977447;28;20462;-83
2021/09/14 04:25:01;;;;;;;15.10;6.07;;;;;;;;;;4971264;28;20043;-82
2021/09/14 04:27:28;;;;;;;15.07;5.05;;;;;;;;;;4973189;28;20089;-83
2021/09/14 04:29:58;;;;;;;12.43;5.50;;;;;;;;;;4968389;28;20129;-83
2021/09/14 04:32:25;;;;;;;15.75;6.18;;;;;;;;;;4974908;28;20078;-83
2021/09/14 04:34:52;;;;;;;14.48;6.43;;;;;;;;;;4972969;28;20533;-83
2021/09/14 04:37:21;;;;;;;21.67;6.30;;;;;;;;;;4974243;28;20130;-83
2021/09/14 04:39:48;;;;;;;20.65;6.72;;;;;;;;;;4973752;28;20126;-83
2021/09/14 04:42:15;;;;;;;9.98;5.10;;;;;;;;;;4974764;28;20113;-83
2021/09/14 04:44:42;;;;;;;19.58;6.70;;;;;;;;;;4974719;28;20055;-83
2021/09/14 04:47:09;;;;;;;8.65;4.20;;;;;;;;;;4972531;28;20133;-85
2021/09/14 04:49:41;;;;;;;9.95;3.50;;;;;;;;;;4974422;28;20050;-85
2021/09/14 04:52:08;;;;;;;7.70;3.70;;;;;;;;;;4976104;28;20130;-88
2021/09/14 04:54:35;;;;;;;10.48;3.97;;;;;;;;;;4988501;28;20080;-87
2021/09/14 04:57:03;;;;;;;9.57;4.07;;;;;;;;;;4979763;28;20457;-84
2021/09/14 04:59:33;;;;;;;18.67;4.65;;;;;;;;;;4970429;28;20093;-83
2021/09/14 05:02:00;;;;;;;9.15;3.70;;;;;;;;;;4965265;28;20110;-83
2021/09/14 05:04:27;;;;;;;10.30;3.88;;;;;;;;;;4970345;28;20481;-84
2021/09/14 05:06:55;;;;;;;11.93;4.05;;;;;;;;;;4967973;28;20050;-88
2021/09/14 05:09:22;;;;;;;10.63;3.55;;;;;;;;;;4976700;28;20100;-86
2021/09/14 05:11:50;;;;;;;9.77;4.05;;;;;;;;;;4963536;28;20117;-89
2021/09/14 05:14:18;;;;;;;18.70;5.00;;;;;;;;;;4994244;28;20054;-86
2021/09/14 05:16:45;;;;;;;7.25;4.35;;;;;;;;;;4980854;28;20125;-86
2021/09/14 05:19:15;;;;;;;10.88;4.85;;;;;;;;;;4977692;28;20070;-83
2021/09/14 05:21:49;;;;;;;13.30;4.65;;;;;;;;;;4972205;28;20085;-86
2021/09/14 05:24:16;;;;;;;6.90;3.83;;;;;;;;;;4971021;28;20138;-83
2021/09/14 05:26:43;;;;;;;17.30;5.22;;;;;;;;;;4971566;28;20062;-84
2021/09/14 05:29:10;;;;;;;10.27;4.53;;;;;;;;;;4992197;28;20063;-82
2021/09/14 05:31:37;;;;;;;9.52;4.07;;;;;;;;;;4983570;28;20046;-82
2021/09/14 05:34:04;;;;;;;10.05;4.95;;;;;;;;;;4974447;28;20075;-83
2021/09/14 05:36:32;;;;;;;11.70;5.22;;;;;;;;;;4974967;28;20820;-85
2021/09/14 05:38:59;;;;;;;11.20;4.00;;;;;;;;;;4972984;28;20122;-84
2021/09/14 05:41:29;;;;;;;10.57;4.50;;;;;;;;;;4974275;28;20865;-84
2021/09/14 05:43:56;;;;;;;13.43;5.10;;;;;;;;;;4975014;28;20760;-84
2021/09/14 05:46:25;;;;;;;17.10;4.70;;;;;;;;;;4974353;28;20055;-84
2021/09/14 05:48:52;;;;;;;9.25;4.88;;;;;;;;;;4972907;28;20488;-84
2021/09/14 05:51:20;;;;;;;10.88;4.72;;;;;;;;;;4971150;28;20109;-84
2021/09/14 05:53:47;;;;;;;10.23;5.55;;;;;;;;;;4973434;28;20078;-84
2021/09/14 05:56:14;;;;;;;24.17;5.07;;;;;;;;;;4974540;28;20140;-84
2021/09/14 05:58:41;;;;;;;9.02;4.53;;;;;;;;;;4962658;28;20481;-84
2021/09/14 06:01:09;;;;;;;14.80;5.30;;;;;;;;;;4952715;28;20138;-83
2021/09/14 06:03:36;;;;;;;7.35;4.13;;;;;;;;;;4971488;28;20577;-84
2021/09/14 06:06:05;;;;;;;14.05;5.10;;;;;;;;;;4972278;28;20076;-84
2021/09/14 06:08:34;;;;;;;15.90;4.18;;;;;;;;;;4974118;28;20078;-84
2021/09/14 06:11:01;;;;;;;12.98;5.03;;;;;;;;;;4971758;28;20059;-84
2021/09/14 06:13:29;;;;;;;14.65;4.30;;;;;;;;;;4973322;28;20129;-84
2021/09/14 06:15:56;;;;;;;15.23;4.97;;;;;;;;;;4973716;28;20047;-84
2021/09/14 06:18:24;;;;;;;16.75;4.90;;;;;;;;;;4973469;28;20113;-85
2021/09/14 06:20:51;;;;;;;11.98;4.45;;;;;;;;;;4958127;28;20047;-84
2021/09/14 06:23:18;;;;;;;8.18;4.05;;;;;;;;;;4971790;28;20068;-84
2021/09/14 06:25:45;;;;;;;17.83;4.57;;;;;;;;;;4973890;28;20058;-85
2021/09/14 06:28:13;;;;;;;8.82;4.68;;;;;;;;;;4968796;28;20534;-84
2021/09/14 06:30:41;;;;;;;13.57;5.68;;;;;;;;;;4964897;28;20482;-84
2021/09/14 06:33:08;;;;;;;13.60;5.32;;;;;;;;;;4972669;28;20126;-85
2021/09/14 06:35:38;;;;;;;14.20;5.60;;;;;;;;;;4972141;28;20375;-85
2021/09/14 06:38:05;;;;;;;10.15;5.32;;;;;;;;;;4973006;28;20050;-84
2021/09/14 06:40:33;;;;;;;12.10;6.05;;;;;;;;;;4971473;28;20054;-84
2021/09/14 06:43:00;;;;;;;13.80;6.15;;;;;;;;;;4969565;28;20097;-84
2021/09/14 06:45:27;;;;;;;10.63;5.55;;;;;;;;;;4972470;28;20082;-85
2021/09/14 06:47:55;;;;;;;15.32;5.35;;;;;;;;;;4971447;28;20078;-84
2021/09/14 06:50:22;;;;;;;13.50;6.13;;;;;;;;;;4971125;28;20122;-84
2021/09/14 06:52:50;;;;;;;19.60;7.43;;;;;;;;;;4970548;28;20050;-84
2021/09/14 06:55:17;;;;;;;17.63;6.57;;;;;;;;;;4971838;28;20053;-84
2021/09/14 06:57:44;;;;;;;18.55;6.78;;;;;;;;;;4971591;28;20078;-84
2021/09/14 07:00:12;;;;;;;14.55;5.30;;;;;;;;;;4970480;28;20126;-84
2021/09/14 07:02:40;;;;;;;22.30;6.72;;;;;;;;;;4971394;28;20476;-84
2021/09/14 07:05:08;;;;;;;17.90;6.20;;;;;;;;;;4971313;28;20058;-84
2021/09/14 07:07:35;;;;;;;13.13;5.57;;;;;;;;;;4972073;28;20074;-84
2021/09/14 07:10:04;;;;;;;14.23;5.65;;;;;;;;;;4970272;28;20090;-84
2021/09/14 07:12:31;;;;;;;12.70;5.68;;;;;;;;;;4965196;28;20070;-84
2021/09/14 07:14:58;;;;;;;13.85;6.07;;;;;;;;;;4967013;28;20051;-85
2021/09/14 07:17:25;;;;;;;19.83;7.28;;;;;;;;;;4966392;28;20113;-85
2021/09/14 07:19:52;;;;;;;21.98;7.90;;;;;;;;;;4958584;28;20070;-85
2021/09/14 07:22:19;;;;;;;17.05;7.43;;;;;;;;;;4967680;28;20170;-84
2021/09/14 07:24:47;;;;;;;24.75;9.88;;;;;;;;;;4969940;28;20138;-85
2021/09/14 07:27:14;;;;;;;21.45;10.20;;;;;;;;;;4972123;28;20126;-85
2021/09/14 07:29:43;;;;;;;25.10;9.55;;;;;;;;;;4958253;28;20061;-85
2021/09/14 07:32:11;;;;;;;17.95;7.57;;;;;;;;;;4963809;28;20047;-85
2021/09/14 07:34:38;;;;;;;12.30;6.78;;;;;;;;;;4970938;28;20082;-85
2021/09/14 07:37:05;;;;;;;18.88;7.93;;;;;;;;;;4970975;28;20112;-85
2021/09/14 07:39:32;;;;;;;16.40;7.18;;;;;;;;;;4971063;28;20687;-84
2021/09/14 07:41:59;;;;;;;22.33;6.97;;;;;;;;;;4970725;28;20070;-84
2021/09/14 07:44:26;;;;;;;20.10;8.35;;;;;;;;;;4970396;28;20138;-84
2021/09/14 07:46:54;;;;;;;19.40;8.50;;;;;;;;;;4974567;28;20755;-84
2021/09/14 07:49:22;;;;;;;20.88;8.65;;;;;;;;;;4975734;28;20125;-84
2021/09/14 07:51:50;;;;;;;19.15;8.35;;;;;;;;;;4973530;28;20050;-85
2021/09/14 07:54:19;;;;;;;22.08;8.80;;;;;;;;;;4976908;28;20117;-84
2021/09/14 07:56:52;;;;;;;19.23;9.13;;;;;;;;;;4975760;28;20051;-84
2021/09/14 07:59:19;;;;;;;15.52;8.27;;;;;;;;;;4991412;28;20129;-84
2021/09/14 08:01:47;;;;;;;19.23;8.30;;;;;;;;;;4975142;28;20089;-84
2021/09/14 08:04:16;;;;;;;15.80;7.70;;;;;;;;;;4974926;28;20039;-84
2021/09/14 08:06:43;;;;;;;22.08;8.13;;;;;;;;;;4976409;28;20055;-84
2021/09/14 08:09:10;;;;;;;16.85;8.43;;;;;;;;;;4975963;28;20488;-84
2021/09/14 08:11:38;;;;;;;18.40;8.20;;;;;;;;;;4974620;28;20137;-84
2021/09/14 08:14:05;;;;;;;15.73;8.68;;;;;;;;;;4960055;28;20130;-85
2021/09/14 08:16:32;;;;;;;19.25;7.65;;;;;;;;;;4974387;28;20118;-85
2021/09/14 08:18:59;;;;;;;14.45;7.35;;;;;;;;;;4974746;28;20134;-85
2021/09/14 08:21:26;;;;;;;27.80;8.15;;;;;;;;;;4975795;28;20082;-84
2021/09/14 08:23:53;;;;;;;21.02;8.13;;;;;;;;;;4974159;28;20141;-84
2021/09/14 08:26:20;;;;;;;21.05;8.88;;;;;;;;;;4974220;28;20133;-85
2021/09/14 08:28:48;;;;;;;23.20;8.38;;;;;;;;;;4975800;28;20078;-84
2021/09/14 08:31:16;;;;;;;20.27;9.30;;;;;;;;;;4959918;28;20773;-85
2021/09/14 08:33:43;;;;;;;18.13;7.80;;;;;;;;;;4974255;28;20075;-85
2021/09/14 08:36:12;;;;;;;20.88;8.32;;;;;;;;;;4974708;28;20101;-85
2021/09/14 08:38:40;;;;;;;14.32;7.13;;;;;;;;;;4975610;28;20050;-85
2021/09/14 08:41:07;;;;;;;18.85;7.70;;;;;;;;;;4973961;28;20125;-84
2021/09/14 08:43:38;;;;;;;15.43;6.80;;;;;;;;;;4975946;28;20456;-85
2021/09/14 08:46:05;;;;;;;18.67;6.25;;;;;;;;;;4973709;28;20126;-85
2021/09/14 08:48:36;;;;;;;14.57;6.50;;;;;;;;;;4974181;28;20093;-85
2021/09/14 08:51:03;;;;;;;14.30;7.05;;;;;;;;;;4974741;28;20043;-84
2021/09/14 08:53:34;;;;;;;16.10;6.97;;;;;;;;;;4973448;28;20046;-84
2021/09/14 08:56:09;;;;;;;13.77;7.13;;;;;;;;;;4972203;28;20060;-86
2021/09/14 08:58:36;;;;;;;;;;;;;;;;;;4974855;28;20522;-84
2021/09/14 09:01:09;;;;;;;18.48;6.30;;;;;;;;;;4989328;28;19930;-85
2021/09/14 09:03:38;;;;;;;16.48;6.10;;;;;;;;;;4970540;28;20086;-85
2021/09/14 09:06:06;;;;;;;11.50;5.18;;;;;;;;;;4955774;28;20480;-85
2021/09/14 09:08:34;;;;;;;18.92;6.00;;;;;;;;;;4954161;29;20087;-85
2021/09/14 09:11:08;;;;;;;12.60;5.63;;;;;;;;;;4972027;28;20070;-85
2021/09/14 09:13:36;;;;;;;9.75;5.45;;;;;;;;;;4973886;28;20849;-85
2021/09/14 09:16:06;;;;;;;10.70;4.93;;;;;;;;;;4974798;28;20838;-84
2021/09/14 09:18:34;;;;;;;19.63;5.60;;;;;;;;;;4972928;28;20067;-84
2021/09/14 09:21:03;;;;;;;12.60;5.45;;;;;;;;;;4964111;28;20044;-85
2021/09/14 09:23:31;;;;;;;10.95;5.43;;;;;;;;;;4957259;28;20057;-85
2021/09/14 09:26:05;;;;;;;14.70;6.50;;;;;;;;;;4972956;28;20507;-85
2021/09/14 09:28:33;;;;;;;10.63;5.32;;;;;;;;;;4965451;28;20126;-85
2021/09/14 09:31:08;;;;;;;11.63;5.13;;;;;;;;;;4972819;28;20054;-85
2021/09/14 09:33:36;;;;;;;8.38;4.70;;;;;;;;;;4973367;28;20130;-85
2021/09/14 09:36:05;;;;;;;17.75;4.32;;;;;;;;;;4974571;28;20050;-85
2021/09/14 09:38:44;;;;;;;13.13;5.85;;;;;;;;;;4973478;28;20047;-85
2021/09/14 09:41:20;;;;;;;12.52;4.30;;;;;;;;;;4974699;28;20130;-85
2021/09/14 09:43:49;;;;;;;9.73;4.20;;;;;;;;;;4973216;28;20467;-85
2021/09/14 09:46:21;;;;;;;8.65;3.88;;;;;;;;;;4973275;28;20158;-85
2021/09/14 09:48:48;;;;;;;11.57;3.63;;;;;;;;;;4973377;28;20149;-84
2021/09/14 09:51:16;;;;;;;8.80;3.88;;;;;;;;;;4965008;28;20166;-85
2021/09/14 09:53:43;;;;;;;7.15;3.05;;;;;;;;;;4972743;28;20042;-85
2021/09/14 09:56:13;;;;;;;6.03;3.85;;;;;;;;;;4972621;28;20097;-85
2021/09/14 09:58:41;;;;;;;8.38;3.63;;;;;;;;;;4965893;28;20110;-85
2021/09/14 10:01:09;;;;;;;7.60;3.10;;;;;;;;;;4957534;28;20050;-85
2021/09/14 10:03:38;;;;;;;8.40;3.50;;;;;;;;;;4973735;28;20057;-85
2021/09/14 10:06:09;;;;;;;14.15;4.30;;;;;;;;;;4973958;28;20109;-85
2021/09/14 10:08:37;;;;;;;14.68;4.25;;;;;;;;;;4971937;28;20526;-85
2021/09/14 10:11:07;;;;;;;11.23;4.10;;;;;;;;;;4971849;28;20093;-85
2021/09/14 10:13:35;;;;;;;7.57;3.92;;;;;;;;;;4972280;28;20117;-85
2021/09/14 10:16:02;;;;;;;7.90;3.20;;;;;;;;;;4972170;28;20077;-85
2021/09/14 10:18:31;;;;;;;4.20;2.95;;;;;;;;;;4972403;28;20129;-85
2021/09/14 10:20:58;;;;;;;7.40;3.15;;;;;;;;;;4963316;28;20066;-85
2021/09/14 10:23:34;;;;;;;6.82;2.88;;;;;;;;;;4966940;28;20146;-85
2021/09/14 10:26:03;;;;;;;11.35;3.00;;;;;;;;;;4968192;28;20108;-86
2021/09/14 10:28:41;;;;;;;12.52;3.55;;;;;;;;;;4967170;28;20140;-85
2021/09/14 10:31:38;;;;;;;7.22;3.10;;;;;;;;;;4957476;28;20058;-86
2021/09/14 10:34:14;;;;;;;5.85;2.30;;;;;;;;;;4971353;28;20142;-86
2021/09/14 10:36:42;;;;;;;7.93;2.85;;;;;;;;;;4972190;28;20130;-86
2021/09/14 10:39:24;;;;;;;13.82;4.32;;;;;;;;;;4972984;28;20057;-86
2021/09/14 10:41:52;;;;;;;8.07;2.38;;;;;;;;;;4972006;28;20086;-86
2021/09/14 10:44:27;;;;;;;7.30;2.65;;;;;;;;;;4967751;28;20097;-85
2021/09/14 10:47:14;;;;;;;7.97;2.67;;;;;;;;;;4957191;28;20137;-86
2021/09/14 10:49:57;;;;;;;12.27;2.63;;;;;;;;;;4970681;28;20142;-85
2021/09/14 10:52:31;;;;;;;8.48;2.72;;;;;;;;;;4986221;28;20090;-85
2021/09/14 10:54:58;;;;;;;4.72;2.38;;;;;;;;;;4972352;28;20082;-84
2021/09/14 10:57:32;;;;;;;6.47;3.10;;;;;;;;;;4972506;28;20105;-85
2021/09/14 11:00:01;;;;;;;11.93;3.10;;;;;;;;;;4954889;28;20051;-85
2021/09/14 11:02:28;;;;;;;6.03;2.92;;;;;;;;;;4953553;28;20663;-85
2021/09/14 11:04:59;;;;;;;7.18;3.17;;;;;;;;;;4954321;28;20090;-85
2021/09/14 11:07:28;;;;;;;5.05;2.75;;;;;;;;;;4964704;28;20055;-85
2021/09/14 11:09:56;;;;;;;13.55;3.60;;;;;;;;;;4972078;28;20150;-85
2021/09/14 11:12:24;;;;;;;6.13;2.63;;;;;;;;;;4971866;28;20073;-85
2021/09/14 11:14:52;;;;;;;11.32;3.67;;;;;;;;;;4971984;28;20047;-85
2021/09/14 11:17:32;;;;;;;6.68;2.63;;;;;;;;;;4974550;28;20194;-84
2021/09/14 11:20:13;;;;;;;5.97;2.95;;;;;;;;;;4968926;28;20089;-84
2021/09/14 11:22:41;;;;;;;13.63;2.75;;;;;;;;;;4970494;28;20078;-85
2021/09/14 11:25:13;;;;;;;9.80;2.72;;;;;;;;;;4973799;28;20519;-85
2021/09/14 11:27:41;;;;;;;11.73;3.08;;;;;;;;;;4966894;28;20079;-84
2021/09/14 11:30:13;;;;;;;11.55;2.92;;;;;;;;;;4970988;28;20138;-84
2021/09/14 11:32:44;;;;;;;8.40;3.03;;;;;;;;;;4970680;28;20050;-84
2021/09/14 11:35:11;;;;;;;7.63;2.70;;;;;;;;;;4966715;28;20051;-85
2021/09/14 11:37:39;;;;;;;7.70;3.25;;;;;;;;;;4952252;29;20717;-85
2021/09/14 11:40:16;;;;;;;8.15;2.78;;;;;;;;;;4961631;28;20126;-85
2021/09/14 11:42:56;;;;;;;6.18;3.00;;;;;;;;;;4972333;28;20054;-85
2021/09/14 11:45:24;;;;;;;8.15;3.13;;;;;;;;;;4971253;28;20051;-85
2021/09/14 11:47:56;;;;;;;4.80;2.55;;;;;;;;;;4973451;28;20086;-84
2021/09/14 11:50:36;;;;;;;12.52;3.33;;;;;;;;;;4973153;28;20058;-84
2021/09/14 11:53:08;;;;;;;8.68;2.85;;;;;;;;;;4971157;28;20133;-85
2021/09/14 11:55:40;;;;;;;8.02;2.80;;;;;;;;;;4954284;28;20121;-84
2021/09/14 11:58:07;;;;;;;7.45;2.60;;;;;;;;;;4969728;28;20644;-84
2021/09/14 12:00:39;;;;;;;7.22;2.72;;;;;;;;;;4970637;28;20655;-84
2021/09/14 12:03:07;;;;;;;5.45;2.42;;;;;;;;;;4971123;28;20723;-84
2021/09/14 12:05:35;;;;;;;5.22;2.35;;;;;;;;;;4972031;28;20058;-84
2021/09/14 12:08:09;;;;;;;4.78;2.30;;;;;;;;;;4972261;28;20078;-85
2021/09/14 12:10:43;;;;;;;6.50;2.80;;;;;;;;;;4972178;28;20081;-85
2021/09/14 12:13:18;;;;;;;5.95;3.25;;;;;;;;;;4971861;28;20050;-84
2021/09/14 12:15:46;;;;;;;7.63;2.40;;;;;;;;;;4971840;28;20133;-85
2021/09/14 12:18:24;;;;;;;8.82;3.08;;;;;;;;;;4972051;28;20142;-85
2021/09/14 12:20:51;;;;;;;5.07;2.40;;;;;;;;;;4964386;28;20479;-85
2021/09/14 12:23:19;;;;;;;4.35;2.65;;;;;;;;;;4970803;28;20062;-85
2021/09/14 12:25:46;;;;;;;4.85;2.00;;;;;;;;;;4971914;28;20716;-85
2021/09/14 12:28:13;;;;;;;9.07;2.38;;;;;;;;;;4962632;28;20101;-85
2021/09/14 12:31:08;;;;;;;6.78;2.35;;;;;;;;;;4971806;28;20098;-85
2021/09/14 12:33:35;;;;;;;6.88;2.90;;;;;;;;;;4973964;28;20130;-86
2021/09/14 12:36:02;;;;;;;5.00;2.50;;;;;;;;;;4975940;28;20133;-85
2021/09/14 12:38:29;;;;;;;4.97;2.50;;;;;;;;;;4975103;28;20126;-84
2021/09/14 12:41:00;;;;;;;4.65;2.20;;;;;;;;;;4974337;28;20043;-84
2021/09/14 12:43:27;;;;;;;8.18;2.47;;;;;;;;;;4975475;28;20050;-85
2021/09/14 12:45:54;;;;;;;5.70;2.70;;;;;;;;;;4974294;28;20078;-84
2021/09/14 12:48:21;;;;;;;7.35;2.50;;;;;;;;;;4971117;28;20130;-85
2021/09/14 12:50:48;;;;;;;7.15;2.88;;;;;;;;;;4971503;28;20132;-85
2021/09/14 12:53:15;;;;;;;8.38;2.60;;;;;;;;;;4973658;28;20117;-85
2021/09/14 12:55:58;;;;;;;5.55;2.63;;;;;;;;;;4974633;28;20451;-85
2021/09/14 12:58:44;;;;;;;4.82;2.80;;;;;;;;;;4965024;28;20051;-85
2021/09/14 13:01:12;;;;;;;9.52;3.45;;;;;;;;;;4960525;28;20062;-84
2021/09/14 13:03:48;;;;;;;6.00;2.58;;;;;;;;;;4974324;28;20058;-84
2021/09/14 13:06:15;;;;;;;7.25;2.63;;;;;;;;;;4974779;28;20078;-85
2021/09/14 13:08:43;;;;;;;5.50;2.60;;;;;;;;;;4973881;28;20136;-84
2021/09/14 13:11:15;;;;;;;12.50;3.58;;;;;;;;;;4975238;28;20081;-85
2021/09/14 13:16:29;;;;;;;5.60;2.70;;;;;;;;;;4976295;28;20055;-86
2021/09/14 13:18:56;;;;;;;6.90;2.90;;;;;;;;;;4966759;28;20342;-85
2021/09/14 13:21:25;;;;;;;7.95;2.92;;;;;;;;;;4968979;28;20524;-85
2021/09/14 13:23:55;;;;;;;7.55;2.60;;;;;;;;;;4974650;28;20133;-84
2021/09/14 13:26:22;;;;;;;7.40;3.20;;;;;;;;;;4973401;28;20055;-85
2021/09/14 13:28:55;;;;;;;7.70;2.78;;;;;;;;;;4972346;28;20058;-85
2021/09/14 13:31:24;;;;;;;9.55;3.45;;;;;;;;;;4973446;28;20496;-85
2021/09/14 13:33:53;;;;;;;10.88;3.13;;;;;;;;;;4973905;28;20053;-85
2021/09/14 13:36:20;;;;;;;4.88;2.55;;;;;;;;;;4974467;28;20129;-85
2021/09/14 13:38:47;;;;;;;12.27;2.63;;;;;;;;;;4972866;28;20078;-86
2021/09/14 13:41:17;;;;;;;4.80;2.88;;;;;;;;;;4974258;28;20479;-85
2021/09/14 13:43:58;;;;;;;5.55;2.40;;;;;;;;;;4973100;28;20098;-85
2021/09/14 13:46:28;;;;;;;5.30;2.53;;;;;;;;;;4974676;28;20134;-86
2021/09/14 13:48:55;;;;;;;10.88;2.80;;;;;;;;;;4964756;28;20134;-86
2021/09/14 13:51:26;;;;;;;3.47;2.60;;;;;;;;;;4962003;28;20147;-86
2021/09/14 13:53:54;;;;;;;8.70;3.10;;;;;;;;;;4956776;28;20051;-85
2021/09/14 13:56:27;;;;;;;7.53;2.88;;;;;;;;;;4975241;28;20511;-84
2021/09/14 13:58:57;;;;;;;5.45;2.85;;;;;;;;;;4964893;28;20461;-85
2021/09/14 14:01:24;;;;;;;8.25;3.80;;;;;;;;;;4972800;28;20138;-85
2021/09/14 14:03:52;;;;;;;8.82;3.38;;;;;;;;;;4973816;28;20117;-85
2021/09/14 14:06:24;;;;;;;12.20;2.70;;;;;;;;;;4974580;28;20721;-85
2021/09/14 14:08:52;;;;;;;8.13;2.80;;;;;;;;;;4973073;28;20601;-86
2021/09/14 14:11:19;;;;;;;5.20;2.33;;;;;;;;;;4973879;28;20039;-85
2021/09/14 14:13:47;;;;;;;7.30;2.85;;;;;;;;;;4973286;28;20080;-85
2021/09/14 14:16:14;;;;;;;6.05;3.17;;;;;;;;;;4974752;28;20078;-86
2021/09/14 14:18:42;;;;;;;14.90;3.47;;;;;;;;;;4967072;28;20627;-84
2021/09/14 14:21:10;;;;;;;7.15;3.53;;;;;;;;;;4974354;28;20097;-85
2021/09/14 14:23:37;;;;;;;8.25;3.53;;;;;;;;;;4975037;28;20058;-84
2021/09/14 14:26:05;;;;;;;8.20;3.35;;;;;;;;;;4974627;28;20432;-85
2021/09/14 14:28:32;;;;;;;4.63;2.80;;;;;;;;;;4966556;28;20078;-85
2021/09/14 14:31:00;;;;;;;4.90;2.53;;;;;;;;;;4974112;28;20051;-85
2021/09/14 14:33:29;;;;;;;8.43;3.08;;;;;;;;;;4972317;28;20086;-85
2021/09/14 14:35:59;;;;;;;4.15;2.70;;;;;;;;;;4972516;28;20141;-86
2021/09/14 14:38:27;;;;;;;8.80;3.40;;;;;;;;;;4972289;28;20546;-84
2021/09/14 14:40:56;;;;;;;7.15;3.00;;;;;;;;;;4972099;28;20142;-85
2021/09/14 14:43:23;;;;;;;7.80;2.83;;;;;;;;;;4972307;28;20085;-85
2021/09/14 14:45:50;;;;;;;12.65;3.38;;;;;;;;;;4972396;28;20563;-85
2021/09/14 14:48:17;;;;;;;6.68;3.05;;;;;;;;;;4971742;28;20095;-85
2021/09/14 14:50:52;;;;;;;7.18;3.08;;;;;;;;;;4964868;28;20384;-86
2021/09/14 14:53:19;;;;;;;4.00;3.00;;;;;;;;;;4973366;28;20134;-85
2021/09/14 14:55:46;;;;;;;6.18;2.95;;;;;;;;;;4972603;28;20125;-86
2021/09/14 14:58:13;;;;;;;6.80;3.22;;;;;;;;;;4969967;28;20555;-85
2021/09/14 15:00:40;;;;;;;7.95;3.25;;;;;;;;;;4953203;28;20110;-85
2021/09/14 15:03:08;;;;;;;6.95;3.13;;;;;;;;;;4952688;28;20106;-85
2021/09/14 15:05:35;;;;;;;12.10;3.05;;;;;;;;;;4967484;28;20105;-85
2021/09/14 15:08:02;;;;;;;7.80;2.83;;;;;;;;;;4971624;28;20551;-85
2021/09/14 15:10:31;;;;;;;12.38;3.40;;;;;;;;;;4971945;28;20086;-85
2021/09/14 15:12:58;;;;;;;7.95;3.63;;;;;;;;;;4973006;28;20106;-85
2021/09/14 15:15:25;;;;;;;6.95;2.65;;;;;;;;;;4973117;28;20695;-86
2021/09/14 15:17:53;;;;;;;5.55;3.00;;;;;;;;;;4972990;28;20047;-85
2021/09/14 15:20:22;;;;;;;6.38;3.25;;;;;;;;;;4970072;28;20043;-85
2021/09/14 15:22:50;;;;;;;7.65;3.17;;;;;;;;;;4973498;28;20082;-85
2021/09/14 15:25:18;;;;;;;6.57;3.13;;;;;;;;;;4971357;28;20061;-85
2021/09/14 15:27:47;;;;;;;7.70;2.88;;;;;;;;;;4972926;28;20131;-85
2021/09/14 15:30:37;;;;;;;8.00;3.08;;;;;;;;;;4952674;28;20865;-85
2021/09/14 15:33:04;;;;;;;7.35;3.17;;;;;;;;;;4953158;28;20047;-85
2021/09/14 15:35:31;;;;;;;6.95;3.28;;;;;;;;;;4951871;29;20543;-85
2021/09/14 15:38:03;;;;;;;5.70;2.80;;;;;;;;;;4972169;28;20170;-85
2021/09/14 15:40:30;;;;;;;6.35;3.10;;;;;;;;;;4971271;28;20124;-85
2021/09/14 15:42:57;;;;;;;7.57;3.03;;;;;;;;;;4971831;28;20146;-85
2021/09/14 15:45:24;;;;;;;10.80;3.28;;;;;;;;;;4971156;28;20050;-85